Terminal Aerodrome Forecast
Issued by NWS Wichita, KS

Home | Current Version | Previous Version | Text Only | Print | Product List | Glossary Off
Versions: 1 2 3 4 5 6 7 8 9 10 11 12 13 14 15 16

418
FTUS43 KICT 271050 AAC
TAFICT
TAF AMD
KICT 271050Z 2711/2806 02007KT P6SM OVC022
     FM271115 03004KT P6SM OVC017
     FM271500 12004KT P6SM SCT020 BKN050
     FM271700 16007KT P6SM SCT030 BKN300
     FM272000 16009KT P6SM BKN040=

USA.gov is the U.S. government's official web portal to all federal, state and local government web resources and services.